createdAt,value
2018-12-24T00:01:44.401Z,97.68
2018-12-24T00:04:15.228Z,97.85
2018-12-24T00:06:46.214Z,97.96
2018-12-24T00:09:16.890Z,97.84
2018-12-24T00:11:47.583Z,97.61
2018-12-24T00:14:18.202Z,97.40
2018-12-24T00:16:48.926Z,97.31
2018-12-24T00:19:19.602Z,96.96
2018-12-24T00:21:50.249Z,97.10
2018-12-24T00:24:21.103Z,97.06
2018-12-24T00:26:51.958Z,97.00
2018-12-24T00:29:22.564Z,97.09
2018-12-24T00:31:53.272Z,96.81
2018-12-24T00:34:23.915Z,96.80
2018-12-24T00:36:54.627Z,96.57
2018-12-24T00:39:25.239Z,96.50
2018-12-24T00:41:57.020Z,96.34
2018-12-24T00:44:27.667Z,96.26
2018-12-24T00:46:58.377Z,96.34
2018-12-24T00:49:29.108Z,96.17
2018-12-24T00:51:59.827Z,96.28
2018-12-24T00:54:30.403Z,95.86
2018-12-24T00:57:01.303Z,95.95
2018-12-24T00:59:31.945Z,96.01
2018-12-24T01:02:02.683Z,95.99
2018-12-24T01:04:33.359Z,96.12
2018-12-24T01:07:04.195Z,96.06
2018-12-24T01:09:34.819Z,96.33
2018-12-24T01:12:05.395Z,96.21
2018-12-24T01:14:36.280Z,96.13
2018-12-24T01:17:06.931Z,96.64
2018-12-24T01:19:37.803Z,97.18
2018-12-24T01:22:08.385Z,97.64
2018-12-24T01:24:39.275Z,97.65
2018-12-24T01:27:10.033Z,97.79
2018-12-24T01:29:40.663Z,98.04
2018-12-24T01:32:11.565Z,98.04
2018-12-24T01:34:42.243Z,98.26
2018-12-24T01:37:13.087Z,98.67
2018-12-24T01:39:43.690Z,98.35
2018-12-24T01:42:14.368Z,98.64
2018-12-24T01:44:45.028Z,98.80
2018-12-24T01:47:15.853Z,99.16
2018-12-24T01:49:46.473Z,99.71
2018-12-24T01:52:17.118Z,100.00
2018-12-24T01:54:47.783Z,100.00
2018-12-24T01:57:18.749Z,100.00
2018-12-24T01:59:49.409Z,100.00
2018-12-24T02:02:20.195Z,100.00
2018-12-24T02:04:50.838Z,100.00
2018-12-24T02:07:21.489Z,100.00
2018-12-24T02:09:52.255Z,100.00
2018-12-24T02:12:22.929Z,100.00
2018-12-24T02:14:53.595Z,100.00
2018-12-24T02:17:24.203Z,100.00
2018-12-24T02:19:54.944Z,100.00
2018-12-24T02:22:25.619Z,100.00
2018-12-24T02:24:56.285Z,100.00
2018-12-24T02:27:27.030Z,100.00
2018-12-24T02:29:57.729Z,100.00
2018-12-24T02:32:28.340Z,100.00
2018-12-24T02:34:59.134Z,100.00
2018-12-24T02:37:29.709Z,100.00
2018-12-24T02:40:00.344Z,100.00
2018-12-24T02:42:30.974Z,100.00
2018-12-24T02:45:01.528Z,100.00
2018-12-24T02:47:32.299Z,99.72
2018-12-24T02:50:03.047Z,95.57
2018-12-24T02:52:33.720Z,96.20
2018-12-24T02:55:04.289Z,97.87
2018-12-24T02:57:35.037Z,98.29
2018-12-24T03:00:05.962Z,99.10
2018-12-24T03:02:36.704Z,99.53
2018-12-24T03:05:07.629Z,100.00
2018-12-24T03:07:38.304Z,99.64
2018-12-24T03:10:09.013Z,98.01
2018-12-24T03:12:39.829Z,97.42
2018-12-24T03:15:10.414Z,97.45
2018-12-24T03:17:41.148Z,97.13
2018-12-24T03:20:11.739Z,96.92
2018-12-24T03:22:42.522Z,97.55
2018-12-24T03:25:13.203Z,98.16
2018-12-24T03:27:43.945Z,98.36
2018-12-24T03:30:14.631Z,97.82
2018-12-24T03:32:46.177Z,97.91
2018-12-24T03:35:16.883Z,97.40
2018-12-24T03:37:47.619Z,97.69
2018-12-24T03:40:18.263Z,97.52
2018-12-24T03:42:49.058Z,97.68
2018-12-24T03:45:21.040Z,98.31
2018-12-24T03:47:52.674Z,97.75
2018-12-24T03:50:23.333Z,97.38
2018-12-24T03:52:54.009Z,97.20
2018-12-24T03:55:24.575Z,97.01
2018-12-24T03:57:57.575Z,96.65
2018-12-24T04:00:28.257Z,96.10
2018-12-24T04:02:58.853Z,95.56
2018-12-24T04:05:29.552Z,95.92
2018-12-24T04:08:00.280Z,95.71
2018-12-24T04:10:30.920Z,96.30
2018-12-24T04:13:01.536Z,95.99
2018-12-24T04:15:32.165Z,95.29
2018-12-24T04:18:02.830Z,95.83
2018-12-24T04:20:33.392Z,96.85
2018-12-24T04:23:04.149Z,95.66
2018-12-24T04:25:39.840Z,94.82
2018-12-24T04:28:10.522Z,95.13
2018-12-24T04:30:41.125Z,94.95
2018-12-24T04:33:11.880Z,96.25
2018-12-24T04:35:42.717Z,96.40
2018-12-24T04:38:13.306Z,96.77
2018-12-24T04:40:44.081Z,97.33
2018-12-24T04:43:14.666Z,97.81
2018-12-24T04:45:45.417Z,97.97
2018-12-24T04:48:16.084Z,97.77
2018-12-24T04:50:46.814Z,97.94
2018-12-24T04:53:17.365Z,96.45
2018-12-24T04:55:48.148Z,97.12
2018-12-24T04:58:18.720Z,96.69
2018-12-24T05:00:49.560Z,97.31
2018-12-24T05:03:20.133Z,97.56
2018-12-24T05:05:50.792Z,98.05
2018-12-24T05:08:21.419Z,97.86
2018-12-24T05:10:52.093Z,97.29
2018-12-24T05:13:22.925Z,96.81
2018-12-24T05:15:53.497Z,96.53
2018-12-24T05:18:24.128Z,96.50
2018-12-24T05:20:54.984Z,95.33
2018-12-24T05:24:27.035Z,95.46
2018-12-24T05:30:02.679Z,95.70
2018-12-24T05:35:37.835Z,95.13
2018-12-24T05:52:55.944Z,96.09
2018-12-24T05:55:26.120Z,95.99
2018-12-24T06:01:02.362Z,95.79
2018-12-24T06:16:23.366Z,93.58
2018-12-24T06:25:05.814Z,93.28
2018-12-24T06:27:36.007Z,93.23
2018-12-24T06:41:49.302Z,93.88
2018-12-24T06:44:59.225Z,94.18
2018-12-24T06:47:48.469Z,93.84
2018-12-24T06:56:10.415Z,92.61
2018-12-24T07:08:07.009Z,92.87
2018-12-24T07:26:03.193Z,91.68
2018-12-24T07:28:33.447Z,91.09
2018-12-24T07:31:03.777Z,90.69
2018-12-24T07:45:57.156Z,88.28
2018-12-24T07:51:52.110Z,88.22
2018-12-24T08:00:33.081Z,89.44
2018-12-24T08:03:03.442Z,90.27
2018-12-24T08:05:33.956Z,89.60
2018-12-24T08:08:07.508Z,90.48
2018-12-24T08:10:37.843Z,90.20
2018-12-24T08:13:08.492Z,90.11
2018-12-24T08:15:38.911Z,90.07
2018-12-24T08:18:09.266Z,89.53
2018-12-24T08:20:39.542Z,89.58
2018-12-24T08:23:10.112Z,88.65
2018-12-24T08:25:40.750Z,89.16
2018-12-24T08:28:11.043Z,89.33
2018-12-24T08:30:41.373Z,88.84
2018-12-24T08:33:11.898Z,88.28
2018-12-24T08:35:42.387Z,87.91
2018-12-24T08:38:12.776Z,87.71
2018-12-24T08:40:43.605Z,87.43
2018-12-24T08:43:13.987Z,87.93
2018-12-24T08:45:44.373Z,87.26
2018-12-24T08:48:15.075Z,86.27
2018-12-24T08:50:45.337Z,86.84
2018-12-24T08:53:15.587Z,86.26
2018-12-24T08:55:45.866Z,86.27
2018-12-24T08:58:16.114Z,85.68
2018-12-24T09:00:46.386Z,85.25
2018-12-24T09:03:16.580Z,85.42
2018-12-24T09:05:46.722Z,85.24
2018-12-24T09:08:16.872Z,84.77
2018-12-24T09:10:47.011Z,84.69
2018-12-24T09:13:17.318Z,85.14
2018-12-24T09:15:50.445Z,85.46
2018-12-24T09:18:20.708Z,85.36
2018-12-24T09:20:52.837Z,83.21
2018-12-24T09:23:24.371Z,84.57
2018-12-24T09:25:54.982Z,83.27
2018-12-24T09:28:25.224Z,83.48
2018-12-24T09:30:55.429Z,83.79
2018-12-24T09:33:25.606Z,84.38
2018-12-24T09:35:55.802Z,83.60
2018-12-24T09:38:26.126Z,84.26
2018-12-24T09:40:56.320Z,83.43
2018-12-24T09:43:26.463Z,82.97
2018-12-24T09:45:56.734Z,82.74
2018-12-24T09:48:26.941Z,82.89
2018-12-24T09:50:57.195Z,82.52
2018-12-24T09:53:27.392Z,82.96
2018-12-24T09:55:57.663Z,83.58
2018-12-24T09:58:27.918Z,82.38
2018-12-24T10:00:58.084Z,82.92
2018-12-24T10:03:42.187Z,81.74
2018-12-24T10:06:15.610Z,80.96
2018-12-24T10:08:46.030Z,81.06
2018-12-24T10:11:16.148Z,80.99
2018-12-24T10:13:47.431Z,80.67
2018-12-24T10:16:17.722Z,79.65
2018-12-24T10:18:47.875Z,80.39
2018-12-24T10:21:18.119Z,80.38
2018-12-24T10:23:48.268Z,80.10
2018-12-24T10:26:18.517Z,79.80
2018-12-24T10:28:48.693Z,80.00
2018-12-24T10:31:18.838Z,78.13
2018-12-24T10:33:49.178Z,79.15
2018-12-24T10:36:19.334Z,77.47
2018-12-24T10:38:51.624Z,77.77
2018-12-24T10:41:24.466Z,77.43
2018-12-24T10:43:55.184Z,78.27
2018-12-24T10:46:25.672Z,78.65
2018-12-24T10:48:55.988Z,79.22
2018-12-24T10:51:26.273Z,78.71
2018-12-24T10:53:56.418Z,78.12
2018-12-24T10:56:26.774Z,75.11
2018-12-24T10:58:56.902Z,76.27
2018-12-24T11:01:27.049Z,76.84
2018-12-24T11:03:57.190Z,78.40
2018-12-24T11:06:27.519Z,78.08
2018-12-24T11:08:57.797Z,76.23
2018-12-24T11:11:29.963Z,76.71
2018-12-24T11:14:00.138Z,76.60
2018-12-24T11:16:30.358Z,79.59
2018-12-24T11:19:00.513Z,74.20
2018-12-24T11:21:30.655Z,74.23
2018-12-24T11:24:00.818Z,73.10
2018-12-24T11:26:31.049Z,73.83
2018-12-24T11:29:01.363Z,72.58
2018-12-24T11:31:31.543Z,71.97
2018-12-24T11:34:01.737Z,70.86
2018-12-24T11:36:31.963Z,71.27
2018-12-24T11:39:02.211Z,70.53
2018-12-24T11:41:33.344Z,70.35
2018-12-24T11:44:03.565Z,70.74
2018-12-24T11:46:34.727Z,70.06
2018-12-24T11:49:04.897Z,70.74
2018-12-24T11:51:35.141Z,69.82
2018-12-24T11:54:05.338Z,71.36
2018-12-24T11:56:38.905Z,71.53
2018-12-24T11:59:09.321Z,71.76
2018-12-24T12:01:39.584Z,73.60
2018-12-24T12:04:09.888Z,75.22
2018-12-24T12:06:40.125Z,75.22
2018-12-24T12:09:10.366Z,76.04
2018-12-24T12:11:40.510Z,78.26
2018-12-24T12:14:10.706Z,81.42
2018-12-24T12:16:40.915Z,81.36
2018-12-24T12:19:11.105Z,81.54
2018-12-24T12:21:44.628Z,81.68
2018-12-24T12:24:15.153Z,82.30
2018-12-24T12:26:45.445Z,83.16
2018-12-24T12:29:15.764Z,81.68
2018-12-24T12:31:45.949Z,81.23
2018-12-24T12:34:16.104Z,82.40
2018-12-24T12:36:46.504Z,83.06
2018-12-24T12:39:16.712Z,83.20
2018-12-24T12:41:46.948Z,83.41
2018-12-24T12:44:17.134Z,84.39
2018-12-24T12:46:47.831Z,84.04
2018-12-24T12:49:18.060Z,82.11
2018-12-24T12:51:48.317Z,81.56
2018-12-24T12:54:18.554Z,80.06
2018-12-24T12:56:48.841Z,79.64
2018-12-24T12:59:19.165Z,78.88
2018-12-24T13:01:49.462Z,77.37
2018-12-24T13:04:19.657Z,78.12
2018-12-24T13:06:50.203Z,77.88
2018-12-24T13:09:20.631Z,78.51
2018-12-24T13:11:50.864Z,80.40
2018-12-24T13:14:21.153Z,80.65
2018-12-24T13:16:51.290Z,81.54
2018-12-24T13:19:21.469Z,81.66
2018-12-24T13:21:51.725Z,82.23
2018-12-24T13:24:21.894Z,83.46
2018-12-24T13:26:54.258Z,86.10
2018-12-24T13:29:24.533Z,85.57
2018-12-24T13:31:54.739Z,87.04
2018-12-24T13:34:24.968Z,85.59
2018-12-24T13:36:55.179Z,86.53
2018-12-24T13:39:25.395Z,85.71
2018-12-24T13:41:55.649Z,85.30
2018-12-24T13:44:25.943Z,84.83
2018-12-24T13:46:56.377Z,83.97
2018-12-24T13:49:26.633Z,85.05
2018-12-24T13:51:56.878Z,84.91
2018-12-24T13:54:27.080Z,85.69
2018-12-24T13:56:57.542Z,86.20
2018-12-24T13:59:27.794Z,86.36
2018-12-24T14:01:58.020Z,86.34
2018-12-24T14:04:28.229Z,87.18
2018-12-24T14:06:58.406Z,89.23
2018-12-24T14:09:28.627Z,87.84
2018-12-24T14:11:58.853Z,88.13
2018-12-24T14:14:29.076Z,89.58
2018-12-24T14:16:59.320Z,89.34
2018-12-24T14:19:29.574Z,89.28
2018-12-24T14:21:59.830Z,88.24
2018-12-24T14:24:30.168Z,89.68
2018-12-24T14:27:00.569Z,89.82
2018-12-24T14:29:30.773Z,89.89
2018-12-24T14:32:01.107Z,90.39
2018-12-24T14:34:31.404Z,90.92
2018-12-24T14:37:01.625Z,92.18
2018-12-24T14:39:31.835Z,91.69
2018-12-24T14:42:02.026Z,92.97
2018-12-24T14:44:32.231Z,92.48
2018-12-24T14:47:02.441Z,91.63
2018-12-24T14:49:32.627Z,90.81
2018-12-24T14:52:02.841Z,90.52
2018-12-24T14:54:33.044Z,90.85
2018-12-24T14:57:04.004Z,90.25
2018-12-24T14:59:34.599Z,90.19
2018-12-24T15:02:05.767Z,91.03
2018-12-24T15:04:37.459Z,91.16
2018-12-24T15:07:09.315Z,91.33
2018-12-24T15:09:46.174Z,91.78
2018-12-24T15:12:16.640Z,92.92
2018-12-24T15:14:46.915Z,93.81
2018-12-24T15:17:17.254Z,94.21
2018-12-24T15:19:47.518Z,94.36
2018-12-24T15:22:17.679Z,94.42
2018-12-24T15:24:47.944Z,94.33
2018-12-24T15:27:18.069Z,94.75
2018-12-24T15:29:48.325Z,94.54
2018-12-24T15:32:18.573Z,94.63
2018-12-24T15:34:48.729Z,94.30
2018-12-24T15:37:18.901Z,94.42
2018-12-24T15:39:49.165Z,95.70
2018-12-24T15:42:19.285Z,96.54
2018-12-24T15:44:52.489Z,96.29
2018-12-24T15:47:22.915Z,95.34
2018-12-24T15:49:53.170Z,95.35
2018-12-24T15:52:23.314Z,96.05
2018-12-24T15:54:53.494Z,95.86
2018-12-24T15:57:23.635Z,95.71
2018-12-24T15:59:53.777Z,95.44
2018-12-24T16:02:23.927Z,95.43
2018-12-24T16:04:54.104Z,95.40
2018-12-24T16:07:24.310Z,95.45
2018-12-24T16:09:54.538Z,95.65
2018-12-24T16:12:24.844Z,95.70
2018-12-24T16:14:55.024Z,96.23
2018-12-24T16:17:26.109Z,96.46
2018-12-24T16:19:56.336Z,97.61
2018-12-24T16:22:26.478Z,97.54
2018-12-24T16:24:56.690Z,97.04
2018-12-24T16:27:26.850Z,97.24
2018-12-24T16:29:57.129Z,97.38
2018-12-24T16:32:27.297Z,97.68
2018-12-24T16:34:57.510Z,97.13
2018-12-24T16:37:27.677Z,97.09
2018-12-24T16:39:57.882Z,97.22
2018-12-24T16:42:28.049Z,96.37
2018-12-24T16:44:58.255Z,96.57
2018-12-24T16:47:28.429Z,96.60
2018-12-24T16:49:58.593Z,96.54
2018-12-24T16:52:28.738Z,96.48
2018-12-24T16:54:58.998Z,96.60
2018-12-24T16:57:29.266Z,96.60
2018-12-24T16:59:59.568Z,96.74
2018-12-24T17:02:29.695Z,97.27
2018-12-24T17:04:59.878Z,97.48
2018-12-24T17:07:30.004Z,97.18
2018-12-24T17:10:00.288Z,97.23
2018-12-24T17:12:30.500Z,96.84
2018-12-24T17:15:00.722Z,96.48
2018-12-24T17:17:30.914Z,96.76
2018-12-24T17:20:01.249Z,97.01
2018-12-24T17:22:31.424Z,96.73
2018-12-24T17:25:01.614Z,97.06
2018-12-24T17:27:31.876Z,97.26
2018-12-24T17:30:02.091Z,97.93
2018-12-24T17:32:32.309Z,98.06
2018-12-24T17:35:02.950Z,98.23
2018-12-24T17:37:33.229Z,98.11
2018-12-24T17:40:03.521Z,98.07
2018-12-24T17:42:33.712Z,98.10
2018-12-24T17:45:04.230Z,98.12
2018-12-24T17:47:34.363Z,97.24
2018-12-24T17:50:05.965Z,97.13
2018-12-24T17:52:36.415Z,97.56
2018-12-24T17:55:06.664Z,97.58
2018-12-24T17:57:36.895Z,97.81
2018-12-24T18:00:07.155Z,97.78
2018-12-24T18:02:37.343Z,97.76
2018-12-24T18:05:07.558Z,98.00
2018-12-24T18:07:37.717Z,97.62
2018-12-24T18:10:08.046Z,97.50
2018-12-24T18:12:38.201Z,97.40
2018-12-24T18:15:08.533Z,97.32
2018-12-24T18:17:39.030Z,97.62
2018-12-24T18:20:09.395Z,97.55
2018-12-24T18:22:39.757Z,97.17
2018-12-24T18:25:10.000Z,97.02
2018-12-24T18:27:40.201Z,97.27
2018-12-24T18:30:10.460Z,97.20
2018-12-24T18:32:40.582Z,97.39
2018-12-24T18:35:10.825Z,97.71
2018-12-24T18:37:41.114Z,97.67
2018-12-24T18:40:11.274Z,97.50
2018-12-24T18:42:41.474Z,97.36
2018-12-24T18:45:11.635Z,97.50
2018-12-24T18:47:41.843Z,98.02
2018-12-24T18:50:12.000Z,97.84
2018-12-24T18:52:42.240Z,98.12
2018-12-24T18:55:12.351Z,98.05
2018-12-24T18:57:42.630Z,97.88
2018-12-24T19:00:12.902Z,97.82
2018-12-24T19:02:43.103Z,97.23
2018-12-24T19:05:13.280Z,98.38
2018-12-24T19:07:43.480Z,97.54
2018-12-24T19:10:13.784Z,97.31
2018-12-24T19:12:45.004Z,97.56
2018-12-24T19:15:17.236Z,97.33
2018-12-24T19:17:47.590Z,95.54
2018-12-24T19:20:18.100Z,94.81
2018-12-24T19:22:48.510Z,94.62
2018-12-24T19:25:18.894Z,94.01
2018-12-24T19:27:50.164Z,94.24
2018-12-24T19:30:20.621Z,93.72
2018-12-24T19:32:50.882Z,95.13
2018-12-24T19:35:23.034Z,95.62
2018-12-24T19:37:53.346Z,95.70
2018-12-24T19:40:23.600Z,95.44
2018-12-24T19:42:53.879Z,95.47
2018-12-24T19:45:24.194Z,94.82
2018-12-24T19:47:54.422Z,95.24
2018-12-24T19:50:24.655Z,95.46
2018-12-24T19:52:54.876Z,95.97
2018-12-24T19:55:25.125Z,95.86
2018-12-24T19:57:55.381Z,95.76
2018-12-24T20:00:25.692Z,95.55
2018-12-24T20:02:55.913Z,95.81
2018-12-24T20:05:26.291Z,96.17
2018-12-24T20:07:56.799Z,96.67
2018-12-24T20:10:27.035Z,97.07
2018-12-24T20:12:57.393Z,96.79
2018-12-24T20:15:27.672Z,96.55
2018-12-24T20:17:58.325Z,96.24
2018-12-24T20:20:28.754Z,96.44
2018-12-24T20:22:58.987Z,96.48
2018-12-24T20:25:29.294Z,96.38
2018-12-24T20:27:59.649Z,96.39
2018-12-24T20:30:31.486Z,95.94
2018-12-24T20:33:01.890Z,95.75
2018-12-24T20:35:32.141Z,95.63
2018-12-24T20:38:02.411Z,96.15
2018-12-24T20:40:32.685Z,96.39
2018-12-24T20:43:02.935Z,96.28
2018-12-24T20:45:33.367Z,96.18
2018-12-24T20:48:06.836Z,96.16
2018-12-24T20:50:35.990Z,96.03
2018-12-24T20:53:06.400Z,95.54
2018-12-24T20:55:36.649Z,95.77
2018-12-24T20:58:06.935Z,95.97
2018-12-24T21:00:37.194Z,96.53
2018-12-24T21:03:07.408Z,96.19
2018-12-24T21:05:37.645Z,96.03
2018-12-24T21:08:08.064Z,96.06
2018-12-24T21:10:38.496Z,96.58
2018-12-24T21:13:08.830Z,97.28
2018-12-24T21:15:39.091Z,97.41
2018-12-24T21:18:14.995Z,98.07
2018-12-24T21:20:41.491Z,97.99
2018-12-24T21:23:21.441Z,98.44
2018-12-24T21:25:51.632Z,98.58
2018-12-24T21:28:21.901Z,98.63
2018-12-24T21:30:52.092Z,98.77
2018-12-24T21:33:22.296Z,99.05
2018-12-24T21:35:52.556Z,99.18
2018-12-24T21:38:22.876Z,98.80
2018-12-24T21:40:53.110Z,99.02
2018-12-24T21:43:23.589Z,98.79
2018-12-24T21:45:53.961Z,98.63
2018-12-24T21:48:24.376Z,98.51
2018-12-24T21:50:54.711Z,98.49
2018-12-24T21:53:25.036Z,98.16
2018-12-24T21:55:55.302Z,97.66
2018-12-24T21:58:25.581Z,97.02
2018-12-24T22:00:56.190Z,96.77
2018-12-24T22:03:26.549Z,96.82
2018-12-24T22:05:56.770Z,96.75
2018-12-24T22:08:27.040Z,96.93
2018-12-24T22:10:57.199Z,96.96
2018-12-24T22:13:27.478Z,96.89
2018-12-24T22:15:57.635Z,96.64
2018-12-24T22:18:32.220Z,96.54
2018-12-24T22:20:59.762Z,96.86
2018-12-24T22:23:29.995Z,97.34
2018-12-24T22:26:00.190Z,97.67
2018-12-24T22:28:30.507Z,97.85
2018-12-24T22:31:00.695Z,97.91
2018-12-24T22:33:30.906Z,97.70
2018-12-24T22:36:01.145Z,97.49
2018-12-24T22:38:32.724Z,97.46
2018-12-24T22:41:03.236Z,97.32
2018-12-24T22:43:33.416Z,97.08
2018-12-24T22:46:03.698Z,96.86
2018-12-24T22:48:40.653Z,96.76
2018-12-24T22:51:05.872Z,96.84
2018-12-24T22:53:36.124Z,96.85
2018-12-24T22:56:06.376Z,97.15
2018-12-24T22:58:36.571Z,97.78
2018-12-24T23:01:06.949Z,97.99
2018-12-24T23:03:37.172Z,97.79
2018-12-24T23:06:07.396Z,97.56
2018-12-24T23:08:37.630Z,97.37
2018-12-24T23:11:07.861Z,97.31
2018-12-24T23:13:38.051Z,97.23
2018-12-24T23:16:08.392Z,97.32
2018-12-24T23:18:38.762Z,97.84
2018-12-24T23:21:09.376Z,98.79
2018-12-24T23:23:39.726Z,98.68
2018-12-24T23:26:11.053Z,98.70
2018-12-24T23:28:41.950Z,98.34
2018-12-24T23:31:12.264Z,97.93
2018-12-24T23:33:42.496Z,97.81
2018-12-24T23:36:12.670Z,97.75
2018-12-24T23:38:42.838Z,97.78
2018-12-24T23:41:12.995Z,97.83
2018-12-24T23:43:43.252Z,97.87
2018-12-24T23:46:13.427Z,97.80
2018-12-24T23:48:43.656Z,97.74
2018-12-24T23:51:13.771Z,97.54
2018-12-24T23:53:43.926Z,97.46
2018-12-24T23:56:14.147Z,97.54
2018-12-24T23:58:44.376Z,97.56
